Time;durP1;ratioP1;P1;durP2;ratioP2;P2;SDS_P1;SDS_P2;PMS_P1;PMS_P2;Temp;Humidity;BMP_temperature;BMP_pressure;BME280_temperature;BME280_humidity;BME280_pressure;Samples;Min_cycle;Max_cycle;Signal;HPM_P1;HPM_P2
2021/06/12 00:01:03;;;;;;;1.45;1.35;;;18.80;56.00;;;21.31;44.98;101767.97;5050632;27;98415;-74
2021/06/12 00:03:35;;;;;;;1.55;1.17;;;18.80;56.10;;;21.28;46.01;101767.91;5048066;27;96893;-74
2021/06/12 00:06:07;;;;;;;1.73;1.00;;;18.80;56.10;;;21.27;44.90;101763.59;5046576;27;97164;-74
2021/06/12 00:08:36;;;;;;;12.30;1.30;;;18.80;56.20;;;21.23;45.10;101755.31;5047437;27;96867;-74
2021/06/12 00:11:04;;;;;;;4.53;3.17;;;18.80;56.20;;;21.19;45.24;101761.81;5051108;27;97240;-73
2021/06/12 00:13:32;;;;;;;1.95;1.33;;;18.70;56.10;;;21.06;45.76;101744.72;5053300;27;97549;-73
2021/06/12 00:16:03;;;;;;;5.47;1.50;;;18.70;56.20;;;21.05;45.65;101748.59;5048813;27;97380;-74
2021/06/12 00:18:31;;;;;;;3.15;1.92;;;18.70;56.30;;;21.06;46.35;101750.16;5035152;27;97413;-74
2021/06/12 00:21:00;;;;;;;8.00;1.85;;;18.60;56.30;;;21.16;45.40;101748.84;5050554;27;97995;-74
2021/06/12 00:23:30;;;;;;;1.13;1.05;;;18.50;56.30;;;21.06;46.02;101750.16;5048261;27;97601;-74
2021/06/12 00:26:04;;;;;;;2.08;1.38;;;18.60;56.40;;;21.01;44.92;101736.00;5065838;27;97184;-74
2021/06/12 00:28:32;;;;;;;8.85;1.70;;;18.50;56.50;;;21.02;45.95;101743.03;5050302;27;97627;-74
2021/06/12 00:31:11;;;;;;;0.68;0.65;;;18.50;56.50;;;21.03;45.86;101741.88;5031634;27;98162;-74
2021/06/12 00:33:40;;;;;;;1.30;1.20;;;18.50;56.50;;;21.04;45.82;101738.81;5051726;27;97689;-73
2021/06/12 00:36:09;;;;;;;6.45;2.03;;;18.50;56.60;;;21.01;45.56;101739.50;5056861;27;97214;-74
2021/06/12 00:38:37;;;;;;;5.90;2.85;;;18.50;56.50;;;21.02;45.40;101737.56;5049753;27;96777;-74
2021/06/12 00:41:08;;;;;;;6.78;2.65;;;18.50;56.50;;;20.92;45.19;101733.41;5055265;27;97168;-74
2021/06/12 00:43:39;;;;;;;1.60;1.20;;;18.40;56.40;;;20.90;45.87;101732.97;5052075;27;96778;-74
2021/06/12 00:46:08;;;;;;;1.08;1.00;;;18.50;56.50;;;20.82;46.35;101720.28;5048447;27;97254;-74
2021/06/12 00:48:41;;;;;;;1.95;1.05;;;18.40;56.60;;;20.81;46.29;101721.38;5066223;27;97232;-74
2021/06/12 00:51:10;;;;;;;4.18;1.50;;;18.40;56.50;;;20.77;45.44;101723.22;5048369;27;97498;-74
2021/06/12 00:53:41;;;;;;;3.97;1.75;;;18.40;56.60;;;20.77;46.15;101717.78;5052400;27;97891;-74
2021/06/12 00:56:12;;;;;;;2.30;1.23;;;18.30;56.60;;;20.80;45.43;101725.25;5054082;27;96672;-74
2021/06/12 00:58:43;;;;;;;2.05;1.38;;;18.30;56.60;;;20.76;46.09;101724.38;5032555;27;97770;-74
2021/06/12 01:01:15;;;;;;;11.88;1.67;;;18.30;56.70;;;20.74;46.10;101721.19;5052561;27;97191;-74
2021/06/12 01:03:46;;;;;;;1.98;1.88;;;18.30;56.70;;;20.77;45.93;101716.97;5066326;27;96746;-74
2021/06/12 01:06:20;;;;;;;0.60;0.60;;;18.30;56.70;;;20.73;45.82;101716.88;5055288;27;96874;-73
2021/06/12 01:08:48;;;;;;;1.50;0.70;;;18.30;56.70;;;20.67;45.77;101726.41;5050238;27;96954;-74
2021/06/12 01:11:17;;;;;;;1.17;0.75;;;18.30;56.70;;;20.68;46.55;101727.22;5049581;27;98466;-74
2021/06/12 01:14:03;;;;;;;3.03;1.50;;;18.30;56.80;;;20.69;45.84;101726.09;5049093;27;97579;-73
2021/06/12 01:16:38;;;;;;;3.47;1.98;;;18.20;56.80;;;20.72;46.51;101725.38;5062184;27;97432;-74
2021/06/12 01:19:36;;;;;;;2.58;2.20;;;18.20;56.80;;;20.70;45.99;101709.38;5052851;27;97051;-74
2021/06/12 01:22:15;;;;;;;15.13;1.48;;;18.20;56.80;;;20.68;45.51;101719.81;5058663;27;97857;-74
2021/06/12 01:25:07;;;;;;;4.57;2.90;;;18.20;56.90;;;20.66;45.79;101724.06;5045421;27;97713;-74
2021/06/12 01:28:11;;;;;;;1.95;1.77;;;18.20;57.00;;;20.54;46.03;101720.56;5049188;27;97645;-74
2021/06/12 01:30:44;;;;;;;2.70;2.05;;;18.10;56.90;;;20.49;46.38;101728.97;5050929;27;97528;-74
2021/06/12 01:33:13;;;;;;;6.15;2.45;;;18.10;56.90;;;20.45;45.79;101728.84;5048606;27;98542;-74
2021/06/12 01:35:48;;;;;;;3.15;2.30;;;18.00;56.90;;;20.44;46.26;101732.72;5047840;27;96984;-74
2021/06/12 01:38:25;;;;;;;16.10;2.67;;;18.00;57.00;;;20.48;46.26;101727.38;5050533;27;97199;-74
2021/06/12 01:40:58;;;;;;;2.90;1.08;;;18.00;57.00;;;20.45;45.78;101728.09;5046860;27;96922;-74
2021/06/12 01:43:29;;;;;;;4.55;1.27;;;17.90;57.00;;;20.42;46.64;101717.88;5046648;27;97831;-74
2021/06/12 01:46:03;;;;;;;1.75;1.25;;;17.90;57.10;;;20.47;45.73;101717.63;5050784;27;98103;-74
2021/06/12 01:48:33;;;;;;;3.97;1.63;;;17.90;57.20;;;20.56;46.00;101707.41;5051162;27;96817;-74
2021/06/12 01:51:06;;;;;;;2.42;1.63;;;17.90;57.20;;;20.60;45.68;101704.41;5048167;27;96959;-74
2021/06/12 01:53:36;;;;;;;3.80;1.98;;;18.00;57.30;;;20.66;45.41;101705.75;5048170;27;97120;-73
2021/06/12 01:56:08;;;;;;;1.67;1.58;;;18.00;57.30;;;20.71;45.27;101704.75;5046337;27;97247;-74
2021/06/12 01:58:43;;;;;;;2.00;1.88;;;18.00;57.40;;;20.75;45.56;101706.44;5047370;27;96794;-74
2021/06/12 02:01:18;;;;;;;1.98;1.45;;;18.00;57.20;;;20.80;45.38;101697.19;5062108;27;98432;-74
2021/06/12 02:03:49;;;;;;;3.47;1.98;;;18.10;57.30;;;20.80;45.83;101703.47;5064653;27;96948;-74
2021/06/12 02:06:18;;;;;;;1.13;1.00;;;18.10;57.30;;;20.87;45.65;101708.34;5046860;27;98271;-74
2021/06/12 02:08:50;;;;;;;2.35;1.50;;;18.10;57.30;;;20.91;44.99;101711.97;5040100;27;97028;-74
2021/06/12 02:11:19;;;;;;;9.73;1.70;;;18.10;57.30;;;20.94;45.68;101711.28;5051464;27;96955;-74
2021/06/12 02:13:49;;;;;;;4.05;2.40;;;18.20;57.70;;;20.90;45.87;101702.97;5051692;27;96912;-73
2021/06/12 02:16:23;;;;;;;2.67;1.63;;;18.20;57.30;;;20.89;46.07;101689.72;5049306;27;97988;-74
2021/06/12 02:18:53;;;;;;;4.60;1.98;;;18.20;57.40;;;20.84;45.81;101698.13;5050963;27;96725;-73
2021/06/12 02:21:23;;;;;;;8.57;3.35;;;18.20;57.30;;;20.71;45.62;101689.16;5046316;27;97400;-73
2021/06/12 02:23:54;;;;;;;5.57;1.20;;;18.20;57.30;;;20.75;46.10;101695.53;5053162;27;97864;-74
2021/06/12 02:26:28;;;;;;;2.80;1.92;;;18.20;57.30;;;20.74;46.47;101696.69;5047391;27;97171;-74
2021/06/12 02:28:58;;;;;;;10.02;2.90;;;18.10;57.30;;;20.79;46.04;101695.63;5050801;27;96847;-73
2021/06/12 02:31:36;;;;;;;3.72;1.70;;;18.10;57.40;;;20.79;45.51;101696.44;5048207;27;96798;-73
2021/06/12 02:34:07;;;;;;;1.65;1.35;;;18.20;57.50;;;20.82;46.04;101703.09;5049105;27;97896;-73
2021/06/12 02:36:36;;;;;;;6.43;1.77;;;18.10;57.40;;;20.86;45.85;101687.66;5049248;27;98009;-74
2021/06/12 02:39:07;;;;;;;1.20;0.75;;;18.10;57.40;;;20.87;46.28;101692.78;5048471;27;97460;-74
2021/06/12 02:41:37;;;;;;;1.33;1.23;;;18.10;57.40;;;20.89;45.85;101682.34;5049701;27;97347;-73
2021/06/12 02:44:06;;;;;;;1.92;1.60;;;18.10;57.40;;;20.94;46.17;101670.41;5049717;27;100414;-73
2021/06/12 02:46:41;;;;;;;1.88;1.77;;;18.20;58.10;;;20.92;46.05;101662.56;5049803;27;97690;-74
2021/06/12 02:49:12;;;;;;;10.65;3.35;;;18.20;57.60;;;20.88;45.39;101663.63;5051916;27;97067;-74
2021/06/12 02:51:46;;;;;;;1.38;1.25;;;18.20;57.60;;;20.84;45.87;101671.69;5047881;27;97435;-74
2021/06/12 02:54:22;;;;;;;1.25;1.15;;;18.20;57.60;;;20.82;46.63;101667.69;5038185;27;97903;-74
2021/06/12 02:56:53;;;;;;;1.05;0.88;;;18.20;57.60;;;20.85;45.92;101672.47;5057263;27;97920;-74
2021/06/12 02:59:23;;;;;;;3.20;1.63;;;18.20;57.60;;;20.89;45.57;101679.59;5048257;27;96856;-73
2021/06/12 03:01:55;;;;;;;3.55;1.58;;;18.20;57.60;;;20.89;45.99;101668.69;5052261;27;97029;-74
2021/06/12 03:04:26;;;;;;;2.00;1.35;;;18.20;57.70;;;20.87;45.46;101671.00;5048107;27;96955;-74
2021/06/12 03:06:57;;;;;;;3.28;1.80;;;18.20;57.80;;;20.87;46.15;101671.00;5049179;27;96820;-74
2021/06/12 03:09:28;;;;;;;3.40;2.35;;;18.20;57.70;;;20.89;46.56;101668.69;5046968;27;96793;-74
2021/06/12 03:11:57;;;;;;;5.97;2.20;;;18.20;57.80;;;20.90;46.63;101669.50;5049661;27;97050;-74
2021/06/12 03:14:28;;;;;;;4.95;2.15;;;18.20;57.80;;;20.92;45.79;101678.91;5047273;27;97316;-73
2021/06/12 03:16:59;;;;;;;1.63;1.52;;;18.20;57.80;;;20.89;46.28;101679.59;5047284;27;97673;-74
2021/06/12 03:19:32;;;;;;;7.55;2.30;;;18.20;57.90;;;20.87;46.24;101689.28;5034729;27;97356;-75
2021/06/12 03:22:03;;;;;;;4.18;2.15;;;18.20;57.80;;;20.91;46.18;101685.50;5048921;27;96926;-74
2021/06/12 03:24:33;;;;;;;5.00;1.95;;;18.20;57.80;;;20.99;46.28;101679.09;5051590;27;97888;-73
2021/06/12 03:27:03;;;;;;;6.93;2.67;;;18.20;57.80;;;21.01;46.24;101676.81;5043731;27;97750;-74
2021/06/12 03:29:34;;;;;;;4.70;1.70;;;18.30;57.80;;;21.05;45.90;101680.44;5046222;27;97008;-74
2021/06/12 03:32:07;;;;;;;1.77;1.67;;;18.30;57.80;;;21.13;45.11;101682.22;5039896;27;97146;-74
2021/06/12 03:34:36;;;;;;;3.97;2.20;;;18.30;57.90;;;21.10;45.77;101685.63;5049362;27;98158;-74
2021/06/12 03:37:07;;;;;;;0.82;0.82;;;18.30;57.80;;;21.17;46.33;101685.81;5050184;27;97899;-75
2021/06/12 03:39:36;;;;;;;7.70;2.17;;;18.30;57.70;;;21.22;45.59;101687.50;5050159;27;98033;-74
2021/06/12 03:42:07;;;;;;;11.70;2.42;;;18.40;57.80;;;21.24;45.84;101685.22;5048599;27;96977;-74
2021/06/12 03:44:38;;;;;;;6.72;3.35;;;18.40;57.80;;;21.27;45.56;101689.97;5045450;27;97906;-74
2021/06/12 03:47:09;;;;;;;1.00;0.95;;;18.40;57.80;;;21.30;45.75;101679.16;5048577;27;98008;-73
2021/06/12 03:49:38;;;;;;;5.13;3.00;;;18.50;57.80;;;21.40;45.60;101677.84;5048874;27;96815;-74
2021/06/12 03:52:09;;;;;;;3.72;1.85;;;18.50;57.70;;;21.44;45.83;101676.78;5051312;27;96929;-74
2021/06/12 03:54:38;;;;;;;4.68;1.60;;;18.50;57.70;;;21.44;45.76;101679.53;5059439;27;97971;-74
2021/06/12 03:57:08;;;;;;;5.32;2.50;;;18.50;57.60;;;21.43;45.71;101694.31;5046240;27;97695;-74
2021/06/12 03:59:36;;;;;;;2.13;1.08;;;18.60;57.50;;;21.43;45.01;101688.84;5046952;27;96839;-74
2021/06/12 04:02:08;;;;;;;1.70;1.15;;;18.60;57.50;;;21.43;45.72;101699.75;5048174;27;96881;-73
2021/06/12 04:04:37;;;;;;;7.03;1.73;;;18.60;57.50;;;21.63;45.03;101703.41;5045912;27;97858;-74
2021/06/12 04:07:06;;;;;;;3.63;2.78;;;18.70;57.60;;;21.68;45.82;101697.69;5045575;27;98236;-74
2021/06/12 04:09:35;;;;;;;4.93;2.25;;;18.70;57.60;;;21.61;45.94;101706.47;5068189;27;97448;-74
2021/06/12 04:12:07;;;;;;;4.18;3.05;;;18.80;57.80;;;21.66;45.42;101698.03;5034007;27;97178;-74
2021/06/12 04:14:35;;;;;;;1.73;1.17;;;18.80;57.60;;;21.63;45.57;101701.47;5049826;27;98214;-74
2021/06/12 04:17:05;;;;;;;4.75;1.52;;;18.80;57.60;;;21.67;46.31;101705.09;5052785;27;97457;-74
2021/06/12 04:19:37;;;;;;;3.35;1.40;;;18.90;57.60;;;21.78;45.60;101706.13;5048844;27;96714;-74
2021/06/12 04:22:06;;;;;;;3.13;1.42;;;18.90;57.60;;;21.87;46.02;101709.44;5053599;27;97503;-74
2021/06/12 04:24:35;;;;;;;3.67;1.75;;;18.90;57.60;;;21.93;45.42;101705.34;5051451;27;97920;-74
2021/06/12 04:27:07;;;;;;;4.75;1.77;;;19.00;57.50;;;21.87;45.81;101704.00;5052774;27;96821;-74
2021/06/12 04:29:35;;;;;;;5.82;2.15;;;19.00;57.50;;;21.83;46.09;101713.25;5049749;27;97776;-74
2021/06/12 04:32:06;;;;;;;5.03;2.47;;;19.00;57.60;;;21.83;46.07;101716.78;5045545;27;97066;-74
2021/06/12 04:34:35;;;;;;;4.20;2.45;;;19.00;57.60;;;21.82;45.61;101723.38;5051365;27;98058;-74
2021/06/12 04:37:06;;;;;;;1.73;1.58;;;19.00;58.20;;;21.82;46.02;101726.09;5046657;27;97668;-74
2021/06/12 04:39:34;;;;;;;3.55;2.55;;;19.00;57.60;;;21.88;45.81;101719.22;5052278;27;97344;-74
2021/06/12 04:42:06;;;;;;;7.15;1.88;;;19.00;57.70;;;21.93;45.93;101718.19;5056159;27;96794;-74
2021/06/12 04:44:35;;;;;;;6.13;2.00;;;19.00;57.70;;;22.13;45.67;101706.19;5065892;27;98004;-74
2021/06/12 04:47:05;;;;;;;3.88;2.88;;;19.10;57.60;;;22.25;45.21;101706.88;5052793;27;98288;-74
2021/06/12 04:49:35;;;;;;;3.20;2.42;;;19.20;57.50;;;22.35;45.53;101725.41;5054354;27;97034;-74
2021/06/12 04:52:05;;;;;;;2.20;1.25;;;19.30;57.50;;;22.39;44.96;101716.19;5053716;27;97016;-74
2021/06/12 04:54:33;;;;;;;4.32;2.72;;;19.30;57.50;;;22.46;45.21;101716.34;5067120;27;97918;-74
2021/06/12 04:57:06;;;;;;;3.55;1.65;;;19.40;57.30;;;22.53;45.41;101721.19;5050721;27;98086;-74
2021/06/12 04:59:35;;;;;;;6.18;3.13;;;19.40;57.30;;;22.63;45.05;101720.59;5049443;27;98051;-74
2021/06/12 05:02:04;;;;;;;2.50;1.95;;;19.50;57.40;;;22.61;45.37;101720.94;5050897;27;96843;-74
2021/06/12 05:04:34;;;;;;;6.10;2.13;;;19.50;57.40;;;22.59;45.37;101731.44;5048070;27;97987;-74
2021/06/12 05:07:05;;;;;;;2.20;1.80;;;19.60;57.40;;;22.51;45.29;101724.25;5068114;27;98378;-74
2021/06/12 05:09:33;;;;;;;10.85;3.13;;;19.50;57.40;;;22.55;45.03;101733.31;5051379;27;97200;-75
2021/06/12 05:12:04;;;;;;;11.38;2.65;;;19.50;57.40;;;22.50;45.20;101733.59;5050882;27;99607;-75
2021/06/12 05:14:33;;;;;;;6.55;2.50;;;19.60;57.50;;;22.43;45.88;101733.44;5054201;27;97496;-73
2021/06/12 05:17:04;;;;;;;8.15;2.63;;;19.50;57.50;;;22.35;45.98;101734.38;5033210;27;97628;-75
2021/06/12 05:19:34;;;;;;;6.95;1.58;;;19.50;57.50;;;22.32;45.84;101731.59;5050696;27;97008;-74
2021/06/12 05:22:05;;;;;;;6.75;2.40;;;19.50;57.70;;;22.27;46.19;101734.59;5055407;27;97549;-74
2021/06/12 05:24:35;;;;;;;15.23;2.90;;;19.50;57.80;;;22.34;46.17;101726.56;5056932;27;96704;-74
2021/06/12 05:27:06;;;;;;;11.50;1.30;;;19.50;57.70;;;22.56;45.75;101723.19;5046292;27;97797;-74
2021/06/12 05:29:35;;;;;;;5.35;2.42;;;19.60;57.70;;;22.67;45.27;101735.94;5050722;27;97549;-74
2021/06/12 05:32:06;;;;;;;3.78;2.83;;;19.70;57.50;;;22.70;45.17;101732.47;5052876;27;96831;-75
2021/06/12 05:34:35;;;;;;;3.80;2.10;;;19.80;57.50;;;22.89;45.13;101728.94;5049331;27;98080;-74
2021/06/12 05:37:05;;;;;;;5.35;4.78;;;19.80;57.40;;;22.86;44.90;101738.66;5048931;27;97655;-74
2021/06/12 05:39:33;;;;;;;3.00;1.55;;;19.80;58.00;;;22.79;45.36;101737.72;5052807;27;96664;-74
2021/06/12 05:42:03;;;;;;;5.07;1.42;;;19.80;57.40;;;22.78;45.15;101738.84;5046967;27;96984;-75
2021/06/12 05:44:31;;;;;;;8.05;2.13;;;19.80;57.50;;;22.86;45.13;101729.69;5049503;27;98916;-74
2021/06/12 05:46:59;;;;;;;5.78;2.78;;;19.80;57.50;;;22.96;45.08;101734.56;5070339;27;96708;-75
2021/06/12 05:49:29;;;;;;;1.20;0.98;;;19.90;57.40;;;23.25;44.69;101733.97;5050662;27;96814;-74
2021/06/12 05:51:59;;;;;;;1.23;0.60;;;20.00;57.30;;;23.52;44.21;101732.91;5049848;27;97325;-74
2021/06/12 05:54:29;;;;;;;2.80;1.65;;;20.20;57.20;;;23.78;44.06;101735.72;5045965;27;96914;-75
2021/06/12 05:56:58;;;;;;;11.07;1.85;;;20.40;56.80;;;23.98;43.83;101738.03;5039091;27;96881;-74
2021/06/12 05:59:26;;;;;;;2.80;2.38;;;20.60;56.60;;;23.99;43.96;101737.66;5051181;27;97698;-74
2021/06/12 06:01:54;;;;;;;2.95;2.30;;;20.70;56.50;;;24.59;42.69;101739.34;5047899;27;97067;-74
2021/06/12 06:04:23;;;;;;;5.13;1.90;;;21.00;56.20;;;24.46;43.26;101737.97;5050004;27;97847;-75
2021/06/12 06:06:51;;;;;;;6.50;1.85;;;21.10;56.00;;;24.64;42.99;101750.03;5032127;27;96743;-75
2021/06/12 06:09:21;;;;;;;3.40;1.55;;;21.20;55.90;;;24.88;42.47;101746.78;5044972;27;97419;-74
2021/06/12 06:11:49;;;;;;;3.40;2.70;;;21.40;56.00;;;24.90;42.73;101738.97;5059109;27;96997;-75
2021/06/12 06:14:18;;;;;;;5.25;2.60;;;21.50;55.90;;;25.27;42.46;101733.53;5054978;27;97935;-72
2021/06/12 06:16:46;;;;;;;2.65;2.08;;;21.60;55.90;;;25.60;41.64;101720.56;5047861;27;97738;-72
2021/06/12 06:19:15;;;;;;;2.65;2.45;;;21.80;55.80;;;26.13;41.17;101739.06;5032355;27;97178;-72
2021/06/12 06:21:43;;;;;;;7.65;1.67;;;22.10;55.40;;;26.04;41.49;101724.88;5048641;27;96945;-72
2021/06/12 06:24:12;;;;;;;4.75;2.20;;;22.30;55.30;;;26.36;41.14;101725.84;5041453;27;98936;-72
2021/06/12 06:26:42;;;;;;;3.80;1.63;;;22.60;55.00;;;27.40;39.76;101722.75;5050527;27;96795;-72
2021/06/12 06:29:10;;;;;;;5.25;2.35;;;23.20;54.80;;;27.18;40.26;101730.59;5050003;27;96930;-72
2021/06/12 06:31:39;;;;;;;4.80;1.77;;;23.40;54.10;;;27.83;39.71;101729.88;5050958;27;96693;-73
2021/06/12 06:34:08;;;;;;;4.88;2.75;;;23.80;53.80;;;28.64;38.61;101727.81;5047228;27;97375;-73
2021/06/12 06:36:36;;;;;;;4.32;2.00;;;24.40;53.30;;;29.14;38.16;101732.72;5065525;27;97839;-73
2021/06/12 06:39:06;;;;;;;6.55;1.42;;;24.90;52.70;;;29.98;37.29;101711.97;5049891;27;96876;-73
2021/06/12 06:41:35;;;;;;;2.90;1.45;;;25.40;52.50;;;29.92;37.66;101736.53;5050396;27;97218;-74
2021/06/12 06:44:06;;;;;;;4.47;2.10;;;25.70;52.20;;;29.20;39.33;101744.91;5048826;27;97825;-72
2021/06/12 06:46:35;;;;;;;7.05;1.60;;;25.50;52.60;;;28.73;40.26;101747.47;5053121;27;97670;-73
2021/06/12 06:49:04;;;;;;;4.45;1.63;;;25.30;53.10;;;28.56;40.81;101745.56;5045475;27;97622;-73
2021/06/12 06:51:32;;;;;;;5.63;2.90;;;25.20;53.50;;;28.31;41.34;101757.81;5045784;27;97508;-73
2021/06/12 06:54:05;;;;;;;5.25;3.67;;;25.00;53.60;;;28.16;41.71;101759.00;5011725;27;97143;-73
2021/06/12 06:56:33;;;;;;;6.68;2.50;;;24.90;53.90;;;28.07;41.89;101747.59;5050692;27;97312;-73
2021/06/12 06:59:05;;;;;;;3.95;2.20;;;24.80;54.00;;;27.76;42.35;101753.88;5065326;27;96890;-74
2021/06/12 07:01:36;;;;;;;8.57;1.33;;;24.60;54.20;;;27.33;43.07;101756.97;5044110;27;96952;-73
2021/06/12 07:04:06;;;;;;;1.15;1.05;;;24.40;54.40;;;26.98;43.29;101754.88;5031560;27;98074;-73
2021/06/12 07:06:35;;;;;;;0.75;0.57;;;24.10;54.70;;;26.94;43.18;101759.56;5051349;27;98088;-72
2021/06/12 07:09:05;;;;;;;2.05;1.65;;;24.00;54.90;;;27.24;42.84;101753.78;5049441;27;97169;-73
2021/06/12 07:11:34;;;;;;;1.15;1.05;;;23.90;55.00;;;28.89;39.82;101753.34;5063811;27;96955;-73
2021/06/12 07:14:05;;;;;;;8.52;0.80;;;24.40;54.40;;;30.52;36.95;101752.53;5049968;27;98557;-73
2021/06/12 07:16:34;;;;;;;1.45;1.30;;;25.20;53.30;;;32.06;34.98;101710.34;5049725;27;97725;-73
2021/06/12 07:19:04;;;;;;;1.50;0.75;;;26.30;52.70;;;33.24;33.81;101753.59;5051207;27;97254;-73
2021/06/12 07:21:34;;;;;;;4.50;1.05;;;27.20;51.60;;;34.10;33.30;101763.81;5047089;27;96892;-73
2021/06/12 07:24:06;;;;;;;0.77;0.77;;;28.00;51.00;;;33.89;34.25;101760.78;5039609;27;97186;-73
2021/06/12 07:26:35;;;;;;;1.25;0.52;;;28.30;51.10;;;32.69;36.22;101757.13;5049741;27;98107;-73
2021/06/12 07:29:06;;;;;;;0.50;0.50;;;28.10;51.40;;;31.77;38.03;101759.16;5049324;27;97171;-73
2021/06/12 07:31:39;;;;;;;1.00;0.60;;;27.80;52.00;;;30.81;39.74;101766.44;5047810;27;97440;-73
2021/06/12 07:34:11;;;;;;;1.13;0.63;;;27.40;52.60;;;30.30;40.57;101765.00;5059251;27;97865;-73
2021/06/12 07:36:40;;;;;;;1.42;1.05;;;27.00;52.90;;;29.77;41.27;101770.97;5049985;27;98017;-73
2021/06/12 07:39:10;;;;;;;1.95;1.00;;;26.70;53.10;;;29.95;40.87;101762.53;5047831;27;96937;-73
2021/06/12 07:41:40;;;;;;;1.90;1.40;;;26.60;53.30;;;30.57;39.73;101783.34;5063557;27;97071;-73
2021/06/12 07:44:10;;;;;;;5.43;0.43;;;26.60;53.10;;;30.52;39.57;101774.66;5049898;27;97768;-73
2021/06/12 07:46:39;;;;;;;2.10;1.02;;;26.60;53.00;;;30.25;40.08;101773.75;5051606;27;97117;-72
2021/06/12 07:49:11;;;;;;;1.42;0.95;;;26.60;53.10;;;30.38;39.79;101781.13;5052389;27;97252;-72
2021/06/12 07:51:40;;;;;;;0.32;0.22;;;26.50;53.10;;;32.17;36.60;101768.44;5031166;27;96965;-75
2021/06/12 07:54:10;;;;;;;1.25;0.52;;;26.90;52.70;;;35.36;30.76;101763.78;5051611;27;97536;-73
2021/06/12 07:56:38;;;;;;;2.85;1.15;;;27.80;52.10;;;37.34;29.38;101771.91;5031072;27;97721;-73
2021/06/12 07:59:07;;;;;;;0.52;0.52;;;29.10;50.80;;;37.88;28.20;101772.91;5050671;27;97583;-75
2021/06/12 08:01:40;;;;;;;0.73;0.57;;;29.90;50.60;;;38.29;30.18;101768.75;5049808;27;97264;-75
2021/06/12 08:04:10;;;;;;;2.20;1.40;;;30.80;50.20;;;39.60;28.41;101777.06;5051343;27;96961;-74
2021/06/12 08:06:39;;;;;;;4.35;0.60;;;31.50;50.10;;;40.00;28.88;101775.41;5050622;27;98213;-74
2021/06/12 08:09:09;;;;;;;8.52;0.70;;;32.10;49.80;;;38.06;32.16;101778.53;5049951;27;97244;-74
2021/06/12 08:11:37;;;;;;;1.23;0.90;;;32.10;49.90;;;41.18;26.24;101764.63;5048827;27;97866;-74
2021/06/12 08:14:06;;;;;;;1.55;1.10;;;32.50;50.10;;;41.89;26.60;101768.53;5054196;27;96936;-74
2021/06/12 08:16:35;;;;;;;2.53;0.75;;;33.20;49.60;;;40.14;30.56;101777.53;5054009;27;98749;-75
2021/06/12 08:19:08;;;;;;;0.98;0.52;;;33.30;49.70;;;38.24;33.82;101777.75;5050939;27;96911;-75
2021/06/12 08:21:37;;;;;;;2.00;0.55;;;32.90;50.30;;;35.51;37.63;101769.69;5031572;27;96883;-75
2021/06/12 08:24:06;;;;;;;1.55;0.60;;;32.10;50.90;;;33.46;40.62;101785.25;5035499;27;97424;-74
2021/06/12 08:26:35;;;;;;;0.70;0.50;;;31.20;51.90;;;32.49;41.84;101794.41;5052501;27;97721;-73
2021/06/12 08:29:04;;;;;;;1.27;0.40;;;30.30;52.70;;;32.15;42.14;101785.47;5027479;27;96987;-71
2021/06/12 08:31:35;;;;;;;1.00;0.88;;;29.60;53.10;;;31.39;42.94;101807.63;5013135;27;96921;-71
2021/06/12 08:34:05;;;;;;;0.65;0.65;;;29.00;53.40;;;30.53;43.95;101803.91;5028134;27;96711;-72
2021/06/12 08:36:35;;;;;;;0.90;0.50;;;28.40;53.80;;;30.25;44.05;101806.94;5047049;27;97409;-70
2021/06/12 08:39:06;;;;;;;0.38;0.28;;;27.90;53.90;;;30.40;43.09;101800.09;5050081;27;96824;-74
2021/06/12 08:41:34;;;;;;;3.40;0.45;;;27.60;54.00;;;30.78;41.75;101811.56;5032109;27;96977;-73
2021/06/12 08:44:05;;;;;;;0.52;0.52;;;27.50;53.70;;;30.62;41.98;101807.78;5053697;27;97808;-74
2021/06/12 08:46:33;;;;;;;0.68;0.40;;;27.40;53.60;;;31.15;40.67;101807.97;5053205;27;96862;-73
2021/06/12 08:49:04;;;;;;;0.20;0.20;;;27.30;53.50;;;31.82;39.15;101811.38;5041767;27;97618;-74
2021/06/12 08:51:35;;;;;;;0.10;0.10;;;27.40;53.30;;;31.73;39.23;101807.59;5049021;27;96854;-74
2021/06/12 08:54:04;;;;;;;1.98;0.80;;;27.60;53.10;;;32.59;37.32;101807.28;5051316;27;97839;-74
2021/06/12 08:56:33;;;;;;;0.32;0.32;;;27.60;52.80;;;34.65;34.49;101813.63;5050185;27;99753;-74
2021/06/12 08:59:02;;;;;;;0.00;0.00;;;28.00;52.70;;;34.17;35.31;101816.53;5050284;27;97640;-74
2021/06/12 09:01:31;;;;;;;1.27;0.55;;;28.40;52.30;;;34.40;34.82;101825.44;5051511;27;97475;-74
2021/06/12 09:04:00;;;;;;;0.05;0.05;;;28.60;52.20;;;36.62;31.80;101820.97;5050068;27;96974;-74
2021/06/12 09:06:29;;;;;;;2.15;0.93;;;28.90;52.00;;;37.30;31.34;101820.84;5052880;27;97697;-74
2021/06/12 09:09:05;;;;;;;0.10;0.10;;;29.30;51.90;;;37.29;31.55;101825.66;5050252;27;97454;-74
2021/06/12 09:11:35;;;;;;;4.32;1.42;;;29.80;51.70;;;38.16;30.08;101819.31;5054654;27;97081;-74
2021/06/12 09:14:08;;;;;;;0.08;0.08;;;30.20;51.30;;;38.97;30.15;101830.53;5057277;27;98352;-74
2021/06/12 09:16:40;;;;;;;0.52;0.50;;;30.50;51.40;;;37.83;31.91;101825.91;5049623;27;97374;-75
2021/06/12 09:19:17;;;;;;;0.30;0.30;;;30.80;51.30;;;35.74;35.36;101820.38;5048277;27;97210;-74
2021/06/12 09:21:50;;;;;;;1.60;0.73;;;30.70;51.30;;;34.13;37.96;101824.16;5032316;27;96803;-75
2021/06/12 09:24:30;;;;;;;0.15;0.13;;;30.40;51.30;;;32.69;39.79;101828.53;5047160;27;97323;-74
2021/06/12 09:27:03;;;;;;;0.77;0.40;;;29.80;51.60;;;32.69;39.57;101834.88;5055316;27;97089;-75
2021/06/12 09:29:37;;;;;;;;;;;29.40;52.10;;;32.92;38.71;101831.25;5054472;27;97156;-74
2021/06/12 09:32:13;;;;;;;1.08;1.00;;;29.10;51.90;;;33.79;36.83;101846.06;5047391;27;96904;-74
2021/06/12 09:34:45;;;;;;;0.20;0.20;;;29.10;52.20;;;33.15;38.14;101839.50;5051733;27;100033;-74
2021/06/12 09:37:17;;;;;;;0.20;0.15;;;29.00;52.20;;;32.98;38.33;101835.09;5049648;27;97706;-74
2021/06/12 09:40:04;;;;;;;1.10;0.73;;;28.90;52.10;;;31.91;39.77;101841.34;5055427;27;96774;-75
2021/06/12 09:42:42;;;;;;;2.50;0.95;;;28.60;52.00;;;31.45;40.19;101832.91;5052423;27;96893;-74
2021/06/12 09:45:15;;;;;;;1.52;0.80;;;28.20;52.20;;;31.54;39.94;101842.28;5048698;27;96804;-74
2021/06/12 09:47:44;;;;;;;0.30;0.13;;;28.00;52.30;;;31.48;39.50;101846.69;5034773;27;100230;-74
2021/06/12 09:50:21;;;;;;;0.28;0.15;;;27.80;52.30;;;32.72;37.14;101844.31;5049187;27;96878;-74
2021/06/12 09:52:52;;;;;;;0.25;0.25;;;27.80;52.30;;;31.93;38.98;101858.34;5035722;27;96891;-74
2021/06/12 09:55:27;;;;;;;0.20;0.10;;;27.80;52.30;;;31.80;38.96;101863.69;5051479;27;98287;-74
2021/06/12 09:57:59;;;;;;;0.00;0.00;;;27.80;52.30;;;31.57;38.96;101869.16;5049413;27;98064;-74
2021/06/12 10:00:38;;;;;;;0.17;0.17;;;27.70;52.20;;;31.05;39.79;101870.56;5047847;27;99990;-74
2021/06/12 10:03:19;;;;;;;1.30;0.52;;;27.60;52.20;;;30.49;40.36;101870.34;5049172;27;96822;-74
2021/06/12 10:06:10;;;;;;;0.55;0.43;;;27.30;52.20;;;29.93;41.21;101884.59;5060606;27;97479;-74
2021/06/12 10:08:41;;;;;;;11.50;1.75;;;27.00;52.40;;;29.95;40.98;101879.44;5050041;27;97824;-74
2021/06/12 10:11:12;;;;;;;0.52;0.50;;;26.80;52.50;;;30.61;39.42;101880.13;5045267;27;97026;-73
2021/06/12 10:13:44;;;;;;;0.38;0.38;;;26.70;52.40;;;30.93;38.59;101879.44;5047947;27;97608;-74
2021/06/12 10:16:14;;;;;;;1.55;1.45;;;26.80;52.40;;;30.55;39.52;101873.44;5051701;27;97949;-75
2021/06/12 10:18:45;;;;;;;0.10;0.10;;;26.80;52.40;;;30.41;39.83;101881.88;5044564;27;97637;-73
2021/06/12 10:21:16;;;;;;;3.50;0.60;;;26.80;52.30;;;30.29;39.78;101890.66;5049081;27;96802;-74
2021/06/12 10:23:49;;;;;;;0.90;0.47;;;26.70;52.30;;;30.24;39.81;101882.81;5054472;27;96985;-74
2021/06/12 10:26:22;;;;;;;0.10;0.10;;;26.60;52.30;;;30.38;39.61;101882.72;5048562;27;97923;-74
2021/06/12 10:28:51;;;;;;;1.48;0.90;;;26.60;52.20;;;30.30;39.81;101886.69;5052565;27;98003;-74